View Sortable Currents For Network
ASOSAWOSCoCoRaHSCOOPDCPISUSM
SchoolNetOtherSCANMy FavoritesBy StateRWIS
RWIS SurfaceRWIS TrafficRWIS SoilBy NWS WFO
Select Network:
Include METARS:
Sort Order: Format:

Times shown are for timezone: America/New_York. The local day summary is based on that timezone.
Table sorted by: (Observation Time)     Click on a column to sort it. Click on site ID for more information. You can download data from this network here and you can view daily summaries on this network.
ADD: ID Station Ob Time Present Wx Temps °F   Wind [knots] Precip Clouds
Air Hi Lo Dewp Feels RH % Alti Vsby Speed Drct Gust @ Time 1 Hour Today Level 1 Level 2 Level 3 Level 4
SBYSALISBURY REGIONAL01:37 AM363736 33 32 89 30.27 10 4NW4 @ 12:00 AM0 SCT 700 SCT 12000
2W6Leonardtown01:37 AM323232 32 0 30.31 10 0N0 OVC 8000
DMWWestminster01:35 AM BR 303030 30 27 100 30.28 2 3NNW3 @ 12:35 AM0 T OVC 400
RSPCamp David01:32 AM BR 232323 23 12 100 30.48 2 9G18NNW22 @ 01:07 AM0 OVC 100
ESNEaston01:28 AM343634 30 0 87 30.33 10 0N3 @ 12:08 AM0 CLR
MTNBALTIMORE/MARTIN01:24 AM343634 32 0 30.32 7 10WNW10 @ 01:24 AM0 BKN 6000 OVC 8500
CBECumberland01:17 AM252725 14 17 63 30.42 10 6NW14 @ 12:17 AM0 SCT 800 BKN 1200 BKN 2000
CGSCollege Park01:17 AM333533 29 27 84 30.31 7 5NW9 @ 12:37 AM0 SCT 2900 BKN 3800 OVC 4900
W29Stevensville01:15 AM BR 323232 30 0 30.3 5 6NW6 @ 01:15 AM0 OVC 7000
FMEFort Meade01:15 AM323232 28 0 30.33 10 5NW7 @ 12:57 AM0 BKN 6000 OVC 8000
2G4Oakland01:15 AM9109 7 -1 92 30.23 1.75 5WNW7 @ 12:55 AM0 OVC 800
CGECambridge01:15 AM323232 30 0 30.3 10 0N0
FDKFREDERICK MUNI APT01:15 AM323232 30 0 30.35 7 6NNW6 @ 01:15 AM0 SCT 1900 OVC 2700
APGPHILLIPS AAF/ABERDN01:13 AMM00 M M M 30.31 9 7NNW7 @ 12:47 AM0 T SCT 2200 BKN 5000
GAIGaithersburg01:11 AM -SN,BR 303030 28 24 93 30.31 4 5NW5 @ 12:35 AMT T BKN 800 OVC 3200
ADWANDREWS AFB12:56 AM353535 27 27 72 30.3 10 10NW10 @ 12:56 AM0 CLR
BWIBALTIMORE/WASH INTL12:54 AM333333 28 26 81 30.31 7 7NW9 @ 12:25 AM0 SCT 5500 OVC 8000
DMHBALTIMORE INNER HARBOR12:54 AM363636 29 0 75 30.3 0N0
NAKAnnapolis12:54 AM BR 353535 32 0 30.3 6 5NW5 @ 12:54 AM0 OVC 7500
NUISt Inigoes12:53 AM BR 323232 31 0 30.3 4 0N0 OVC 10000
HGRHAGERSTOWN REGIONAL12:53 AM BR 292929 26 21 89 30.32 4 7NW7 @ 12:53 AM0 OVC 3100
OXBOCEAN CITY MUNI12:53 AM FG 383938 38 33 100 30.28 0.5 6NW6 @ 12:53 AM0 VV 200
NHKPATUXENT RIVER NAS16 Jan 10:52 PMSite Offline
RJDRidgely16 Sep 02:04 PMSite Offline
  Plot Plot Plot Plot Plot Plot Plot Plot Plot   Plot Plot Plot